Time;durP1;ratioP1;P1;durP2;ratioP2;P2;SDS_P1;SDS_P2;PMS_P1;PMS_P2;Temp;Humidity;BMP_temperature;BMP_pressure;BME280_temperature;BME280_humidity;BME280_pressure;Samples;Min_cycle;Max_cycle;Signal;HPM_P1;HPM_P2
2022/12/22 03:26:18;;;;;;;31.63;20.08;;;;;;;;;;10279381;28;20146;-63
2022/12/22 03:31:17;;;;;;;31.52;18.50;;;;;;;;;;10317476;28;20124;-63
2022/12/22 03:36:15;;;;;;;34.20;20.65;;;;;;;;;;10317769;28;20055;-62
2022/12/22 03:46:30;;;;;;;30.48;19.58;;;;;;;;;;10316505;28;20087;-63
2022/12/22 03:51:28;;;;;;;29.17;18.65;;;;;;;;;;10298203;28;20290;-62
2022/12/22 03:56:27;;;;;;;32.63;17.60;;;;;;;;;;10315988;28;20437;-62
2022/12/22 04:01:26;;;;;;;32.28;17.65;;;;;;;;;;10316141;28;20082;-62
2022/12/22 04:06:25;;;;;;;34.33;20.60;;;;;;;;;;10317109;28;20055;-62
2022/12/22 04:16:40;;;;;;;28.08;17.75;;;;;;;;;;10316605;28;20037;-62
2022/12/22 04:21:39;;;;;;;27.77;17.05;;;;;;;;;;10310005;28;20041;-63
2022/12/22 04:26:37;;;;;;;37.00;20.73;;;;;;;;;;10299875;28;20068;-64
2022/12/22 04:31:35;;;;;;;37.45;21.52;;;;;;;;;;10315621;28;20078;-62
2022/12/22 04:36:35;;;;;;;31.73;18.20;;;;;;;;;;10316155;28;20036;-62
2022/12/22 04:41:33;;;;;;;31.67;19.27;;;;;;;;;;10296831;28;20073;-62
2022/12/22 04:46:32;;;;;;;33.88;20.50;;;;;;;;;;10315192;28;20045;-62
2022/12/22 04:51:30;;;;;;;28.40;18.10;;;;;;;;;;10311294;28;20076;-63
2022/12/22 04:56:30;;;;;;;27.70;16.88;;;;;;;;;;10315057;28;20053;-63
2022/12/22 05:01:28;;;;;;;32.75;18.60;;;;;;;;;;10308321;28;20083;-62
2022/12/22 05:06:26;;;;;;;31.40;18.98;;;;;;;;;;10312886;28;20075;-63
2022/12/22 05:11:24;;;;;;;30.65;16.83;;;;;;;;;;10309535;28;20075;-62
2022/12/22 05:16:24;;;;;;;31.27;19.13;;;;;;;;;;10313556;28;20556;-63
2022/12/22 05:21:23;;;;;;;28.92;16.52;;;;;;;;;;10309591;28;20076;-62
2022/12/22 05:26:21;;;;;;;27.27;15.77;;;;;;;;;;10302660;28;20068;-62
2022/12/22 05:31:20;;;;;;;28.70;17.92;;;;;;;;;;10276565;28;20487;-63
2022/12/22 05:36:20;;;;;;;26.83;17.27;;;;;;;;;;10303442;28;20084;-62
2022/12/22 05:41:19;;;;;;;26.25;16.73;;;;;;;;;;10318692;28;20484;-60
2022/12/22 05:46:17;;;;;;;29.90;19.33;;;;;;;;;;10299863;28;20477;-62
2022/12/22 05:51:15;;;;;;;29.05;18.55;;;;;;;;;;10314534;28;20414;-62
2022/12/22 05:56:15;;;;;;;33.08;18.55;;;;;;;;;;10314549;28;20553;-63
2022/12/22 06:01:13;;;;;;;28.60;17.35;;;;;;;;;;10307102;28;20064;-63
2022/12/22 06:06:13;;;;;;;27.33;16.40;;;;;;;;;;10310380;28;20080;-63
2022/12/22 06:11:11;;;;;;;27.38;14.52;;;;;;;;;;10314926;28;20155;-63
2022/12/22 06:16:10;;;;;;;31.33;18.77;;;;;;;;;;10316357;28;20087;-63
2022/12/22 06:21:09;;;;;;;33.10;18.60;;;;;;;;;;10295778;28;20060;-62
2022/12/22 06:26:07;;;;;;;35.30;17.55;;;;;;;;;;10313914;28;20068;-64
2022/12/22 06:31:05;;;;;;;34.85;21.45;;;;;;;;;;10303082;28;20072;-63
2022/12/22 06:36:06;;;;;;;40.30;22.98;;;;;;;;;;10314678;28;20525;-63
2022/12/22 06:41:04;;;;;;;40.00;23.15;;;;;;;;;;10290586;28;20048;-64
2022/12/22 06:46:02;;;;;;;35.58;21.23;;;;;;;;;;10311543;28;20648;-63
2022/12/22 06:51:01;;;;;;;37.70;21.02;;;;;;;;;;10306761;28;20080;-62
2022/12/22 06:56:00;;;;;;;52.13;24.98;;;;;;;;;;10314352;28;20162;-63
2022/12/22 07:00:58;;;;;;;58.03;30.83;;;;;;;;;;10301957;28;20032;-63
2022/12/22 07:05:57;;;;;;;36.85;24.00;;;;;;;;;;10294544;28;20063;-63
2022/12/22 07:10:57;;;;;;;108.38;53.45;;;;;;;;;;10311266;28;20068;-62
2022/12/22 07:15:57;;;;;;;44.58;32.10;;;;;;;;;;10308334;28;20067;-62
2022/12/22 07:20:58;;;;;;;114.05;55.53;;;;;;;;;;10312124;28;20048;-62
2022/12/22 07:25:56;;;;;;;34.47;21.35;;;;;;;;;;10316665;28;20076;-62
2022/12/22 07:30:55;;;;;;;40.70;21.45;;;;;;;;;;10317228;28;20072;-63
2022/12/22 07:36:08;;;;;;;40.72;25.23;;;;;;;;;;10302275;28;20071;-62
2022/12/22 07:42:43;;;;;;;53.38;30.27;;;;;;;;;;10307540;28;20064;-63
2022/12/22 07:46:26;;;;;;;68.70;37.75;;;;;;;;;;10306050;28;20490;-63
2022/12/22 07:51:26;;;;;;;40.75;24.45;;;;;;;;;;10314390;28;20080;-62
2022/12/22 07:56:24;;;;;;;85.07;57.65;;;;;;;;;;10304132;28;20692;-63
2022/12/22 08:01:23;;;;;;;50.33;27.23;;;;;;;;;;10296405;28;20056;-63
2022/12/22 08:06:21;;;;;;;41.97;27.88;;;;;;;;;;10294135;28;20057;-63
2022/12/22 08:11:21;;;;;;;43.53;28.17;;;;;;;;;;10309467;28;20064;-63
2022/12/22 08:16:20;;;;;;;67.30;39.03;;;;;;;;;;10313794;28;20072;-63
2022/12/22 08:21:18;;;;;;;40.85;26.55;;;;;;;;;;10312025;28;20041;-63
2022/12/22 08:26:18;;;;;;;41.63;26.25;;;;;;;;;;10315998;28;20055;-62
2022/12/22 08:31:18;;;;;;;32.92;21.77;;;;;;;;;;10310294;28;20538;-63
2022/12/22 08:36:16;;;;;;;49.83;28.80;;;;;;;;;;10299560;28;20147;-62
2022/12/22 08:41:48;;;;;;;54.35;32.42;;;;;;;;;;10306270;28;20517;-62
2022/12/22 08:46:35;;;;;;;43.60;24.90;;;;;;;;;;10310548;28;20037;-63
2022/12/22 08:51:34;;;;;;;46.47;29.83;;;;;;;;;;10271654;28;20080;-63
2022/12/22 08:56:32;;;;;;;35.17;19.90;;;;;;;;;;10273800;28;20075;-63
2022/12/22 09:01:31;;;;;;;32.58;20.60;;;;;;;;;;10267150;28;20060;-62
2022/12/22 09:06:31;;;;;;;34.38;19.52;;;;;;;;;;10273242;28;20073;-63
2022/12/22 09:11:38;;;;;;;34.97;20.95;;;;;;;;;;10274401;28;20076;-64
2022/12/22 09:16:36;;;;;;;39.40;23.88;;;;;;;;;;10280970;28;20080;-63
2022/12/22 09:21:36;;;;;;;42.58;26.55;;;;;;;;;;10278022;28;20072;-61
2022/12/22 09:26:35;;;;;;;39.33;25.10;;;;;;;;;;10273756;28;20059;-63
2022/12/22 09:31:33;;;;;;;40.42;31.30;;;;;;;;;;10279461;28;20069;-62
2022/12/22 09:36:32;;;;;;;34.83;22.33;;;;;;;;;;10279191;28;20522;-63
2022/12/22 09:41:34;;;;;;;38.03;22.83;;;;;;;;;;10275556;28;20075;-62
2022/12/22 09:46:34;;;;;;;36.03;24.85;;;;;;;;;;10279415;28;20518;-63
2022/12/22 09:51:34;;;;;;;39.63;25.38;;;;;;;;;;10277856;28;20072;-64
2022/12/22 09:56:33;;;;;;;43.33;26.33;;;;;;;;;;10262850;28;20128;-62
2022/12/22 10:01:38;;;;;;;52.85;32.45;;;;;;;;;;10266246;28;20470;-63
2022/12/22 10:06:40;;;;;;;69.57;47.03;;;;;;;;;;10266878;28;20071;-63
2022/12/22 10:11:49;;;;;;;26.63;19.80;;;;;;;;;;10279178;28;20076;-64
2022/12/22 10:16:47;;;;;;;39.65;28.67;;;;;;;;;;10264532;28;20079;-63
2022/12/22 10:21:45;;;;;;;36.08;27.17;;;;;;;;;;10280794;28;20072;-64
2022/12/22 10:26:45;;;;;;;24.77;15.77;;;;;;;;;;10290490;28;20095;-64
2022/12/22 10:31:56;;;;;;;26.52;19.77;;;;;;;;;;10293975;28;20077;-63
2022/12/22 10:36:57;;;;;;;38.42;25.13;;;;;;;;;;10291439;28;20064;-63
2022/12/22 10:41:59;;;;;;;142.13;73.78;;;;;;;;;;10292056;28;20155;-63
2022/12/22 10:46:58;;;;;;;45.67;28.50;;;;;;;;;;10278932;28;20072;-62
2022/12/22 10:51:58;;;;;;;99.15;53.17;;;;;;;;;;10315887;28;20072;-63
2022/12/22 10:57:02;;;;;;;41.50;27.58;;;;;;;;;;10316185;28;20045;-62
2022/12/22 11:02:27;;;;;;;82.13;50.33;;;;;;;;;;10318110;28;20040;-61
2022/12/22 11:07:26;;;;;;;55.77;32.67;;;;;;;;;;10269558;28;20080;-63
2022/12/22 11:12:31;;;;;;;46.15;31.83;;;;;;;;;;10297467;28;20291;-65
2022/12/22 11:17:36;;;;;;;53.30;31.15;;;;;;;;;;10317208;28;20091;-61
2022/12/22 11:22:37;;;;;;;34.93;25.20;;;;;;;;;;10315568;28;20056;-62
2022/12/22 11:27:42;;;;;;;47.03;31.05;;;;;;;;;;10316033;28;20079;-63
2022/12/22 11:33:01;;;;;;;44.58;31.55;;;;;;;;;;10314948;28;20136;-63
2022/12/22 11:38:02;;;;;;;35.92;22.45;;;;;;;;;;10303685;28;20071;-62
2022/12/22 11:43:10;;;;;;;42.80;27.70;;;;;;;;;;10304299;28;20056;-63
2022/12/22 11:48:19;;;;;;;31.42;20.63;;;;;;;;;;10301650;28;20087;-63
2022/12/22 11:53:26;;;;;;;36.53;22.90;;;;;;;;;;10315010;28;20605;-62
2022/12/22 11:58:33;;;;;;;28.10;18.67;;;;;;;;;;10315665;28;20434;-63
2022/12/22 12:03:49;;;;;;;35.78;21.02;;;;;;;;;;10314793;28;20048;-63
2022/12/22 12:08:58;;;;;;;34.45;23.63;;;;;;;;;;10312054;28;20481;-63
2022/12/22 12:14:03;;;;;;;52.28;32.15;;;;;;;;;;10311660;28;20091;-63
2022/12/22 12:19:19;;;;;;;32.17;22.40;;;;;;;;;;10310630;28;20068;-63
2022/12/22 12:24:33;;;;;;;32.33;20.15;;;;;;;;;;10312237;28;20095;-63
2022/12/22 12:29:37;;;;;;;32.83;23.63;;;;;;;;;;10314089;28;20075;-64
2022/12/22 12:34:38;;;;;;;52.97;36.75;;;;;;;;;;10313959;28;20072;-63
2022/12/22 12:39:39;;;;;;;37.15;25.10;;;;;;;;;;10314167;28;20068;-63
2022/12/22 12:44:39;;;;;;;40.63;26.83;;;;;;;;;;10312267;28;20084;-63
2022/12/22 12:50:00;;;;;;;39.88;23.65;;;;;;;;;;10320090;28;20080;-63
2022/12/22 12:55:22;;;;;;;51.83;30.05;;;;;;;;;;10321731;28;20472;-63
2022/12/22 13:00:45;;;;;;;47.10;29.10;;;;;;;;;;10316831;28;20044;-64
2022/12/22 13:05:50;;;;;;;72.40;38.58;;;;;;;;;;10286698;28;20040;-63
2022/12/22 13:11:09;;;;;;;79.55;41.13;;;;;;;;;;10323063;28;20064;-63
2022/12/22 13:16:26;;;;;;;72.03;40.67;;;;;;;;;;10320722;28;20051;-63
2022/12/22 13:21:27;;;;;;;56.58;32.70;;;;;;;;;;10315060;28;20076;-63
2022/12/22 13:26:47;;;;;;;78.72;47.83;;;;;;;;;;10316968;28;20520;-62
2022/12/22 13:31:46;;;;;;;97.28;62.55;;;;;;;;;;10310458;28;20106;-62
2022/12/22 13:36:46;;;;;;;88.95;56.08;;;;;;;;;;10307234;28;20036;-64
2022/12/22 13:41:46;;;;;;;75.95;49.05;;;;;;;;;;10312876;28;20061;-63
2022/12/22 13:46:44;;;;;;;86.93;52.90;;;;;;;;;;10310848;28;20102;-64
2022/12/22 13:51:43;;;;;;;75.65;48.30;;;;;;;;;;10314461;28;20072;-63
2022/12/22 13:56:44;;;;;;;72.38;40.75;;;;;;;;;;10299708;28;20068;-63
2022/12/22 14:01:48;;;;;;;80.28;42.72;;;;;;;;;;10306918;28;20061;-64
2022/12/22 14:06:46;;;;;;;92.05;55.58;;;;;;;;;;10307227;28;20079;-64
2022/12/22 14:11:48;;;;;;;117.28;65.80;;;;;;;;;;10306269;28;20064;-63
2022/12/22 14:16:51;;;;;;;88.28;48.90;;;;;;;;;;10328516;28;20068;-62
2022/12/22 14:21:51;;;;;;;90.22;54.45;;;;;;;;;;10316085;28;20154;-63
2022/12/22 14:26:52;;;;;;;91.57;57.58;;;;;;;;;;10306893;28;20068;-63
2022/12/22 14:31:51;;;;;;;85.45;58.45;;;;;;;;;;10318644;28;20068;-64
2022/12/22 14:36:50;;;;;;;113.07;67.85;;;;;;;;;;10314514;28;20036;-64
2022/12/22 14:41:53;;;;;;;136.57;83.78;;;;;;;;;;10311198;28;20048;-63
2022/12/22 14:47:06;;;;;;;124.15;78.28;;;;;;;;;;10309551;28;20064;-63
2022/12/22 14:52:06;;;;;;;129.27;82.55;;;;;;;;;;10305853;28;20075;-63
2022/12/22 14:57:10;;;;;;;135.40;80.15;;;;;;;;;;10312145;28;20037;-64
2022/12/22 15:02:20;;;;;;;121.82;70.90;;;;;;;;;;10303530;28;20076;-64
2022/12/22 15:07:20;;;;;;;99.82;63.30;;;;;;;;;;10311303;28;20344;-64
2022/12/22 15:12:39;;;;;;;90.95;59.17;;;;;;;;;;10314251;28;20075;-64
2022/12/22 15:17:38;;;;;;;113.05;73.55;;;;;;;;;;10317409;28;20076;-64
2022/12/22 15:22:36;;;;;;;101.85;66.72;;;;;;;;;;10314856;28;20068;-64
2022/12/22 15:27:34;;;;;;;93.75;62.35;;;;;;;;;;10317048;28;20053;-64
2022/12/22 15:32:34;;;;;;;129.70;73.25;;;;;;;;;;10298724;28;20051;-64
2022/12/22 15:37:35;;;;;;;176.60;109.68;;;;;;;;;;10317616;28;20055;-63
2022/12/22 15:42:33;;;;;;;227.20;138.43;;;;;;;;;;10317704;28;20391;-64
2022/12/22 15:47:31;;;;;;;252.77;151.18;;;;;;;;;;10314497;28;20498;-64
2022/12/22 15:52:31;;;;;;;211.73;129.00;;;;;;;;;;10316166;28;20087;-64
2022/12/22 15:57:29;;;;;;;182.90;121.10;;;;;;;;;;10317456;28;20074;-63
2022/12/22 16:02:27;;;;;;;199.02;127.15;;;;;;;;;;10315344;28;20474;-63
2022/12/22 16:07:26;;;;;;;189.68;127.78;;;;;;;;;;10316047;28;20041;-63
2022/12/22 16:12:26;;;;;;;188.48;117.30;;;;;;;;;;10316054;28;20467;-63
2022/12/22 16:17:27;;;;;;;190.13;129.10;;;;;;;;;;10296685;28;20051;-63
2022/12/22 16:22:29;;;;;;;161.95;104.05;;;;;;;;;;10314221;28;20068;-62
2022/12/22 16:27:28;;;;;;;138.40;89.97;;;;;;;;;;10316340;28;20044;-64
2022/12/22 16:32:28;;;;;;;188.93;123.20;;;;;;;;;;10309175;28;20446;-63
2022/12/22 16:37:26;;;;;;;153.98;96.75;;;;;;;;;;10315127;28;20068;-64
2022/12/22 16:42:25;;;;;;;126.90;81.35;;;;;;;;;;10314816;28;20045;-64
2022/12/22 16:47:42;;;;;;;125.93;77.72;;;;;;;;;;10318930;28;20103;-63
2022/12/22 16:52:41;;;;;;;120.80;77.68;;;;;;;;;;10302763;28;20089;-62
2022/12/22 16:57:39;;;;;;;146.27;77.25;;;;;;;;;;10297417;28;20057;-63
2022/12/22 17:02:37;;;;;;;133.13;73.10;;;;;;;;;;10296437;28;20079;-63
2022/12/22 17:07:37;;;;;;;138.75;80.80;;;;;;;;;;10314807;28;20060;-63
2022/12/22 17:12:35;;;;;;;127.78;81.10;;;;;;;;;;10310130;28;20068;-64
2022/12/22 17:17:34;;;;;;;117.50;73.18;;;;;;;;;;10300220;28;20071;-63
2022/12/22 17:22:41;;;;;;;166.40;101.10;;;;;;;;;;10304228;28;20076;-63
2022/12/22 17:27:39;;;;;;;143.65;91.47;;;;;;;;;;10295514;28;20528;-62
2022/12/22 17:32:37;;;;;;;97.07;62.45;;;;;;;;;;10301391;28;20076;-64
2022/12/22 17:37:36;;;;;;;84.93;56.22;;;;;;;;;;10314187;28;20409;-63
2022/12/22 17:42:35;;;;;;;88.47;58.80;;;;;;;;;;10305895;28;20072;-63
2022/12/22 17:47:33;;;;;;;86.60;49.75;;;;;;;;;;10306150;28;20072;-64
2022/12/22 17:52:40;;;;;;;79.68;47.97;;;;;;;;;;10314364;28;20079;-63
2022/12/22 17:57:39;;;;;;;83.72;54.17;;;;;;;;;;10306962;28;20071;-63
2022/12/22 18:02:38;;;;;;;84.38;53.25;;;;;;;;;;10316749;28;20064;-64
2022/12/22 18:07:36;;;;;;;88.07;60.67;;;;;;;;;;10297340;28;20044;-64
2022/12/22 18:12:42;;;;;;;91.17;56.40;;;;;;;;;;10283969;28;20474;-65
2022/12/22 18:17:40;;;;;;;86.00;54.83;;;;;;;;;;10309296;28;20497;-64
2022/12/22 18:22:38;;;;;;;92.40;57.97;;;;;;;;;;10311427;28;20049;-64
2022/12/22 18:27:37;;;;;;;94.93;62.30;;;;;;;;;;10309004;28;20436;-64
2022/12/22 18:32:36;;;;;;;72.68;45.38;;;;;;;;;;10298785;28;20052;-64
2022/12/22 18:37:35;;;;;;;90.32;55.10;;;;;;;;;;10300314;28;20079;-64
2022/12/22 18:42:33;;;;;;;84.38;52.35;;;;;;;;;;10311176;28;21354;-63
2022/12/22 18:47:31;;;;;;;81.50;54.03;;;;;;;;;;10309370;28;20080;-62
2022/12/22 18:52:31;;;;;;;80.85;49.90;;;;;;;;;;10307497;28;20087;-64
2022/12/22 18:57:29;;;;;;;83.65;55.28;;;;;;;;;;10305306;28;20146;-65
2022/12/22 19:02:28;;;;;;;106.65;65.78;;;;;;;;;;10313029;28;20069;-63
2022/12/22 19:07:26;;;;;;;101.70;64.45;;;;;;;;;;10305491;28;20068;-64
2022/12/22 19:12:27;;;;;;;143.95;84.40;;;;;;;;;;10294084;28;20403;-64
2022/12/22 19:17:27;;;;;;;107.00;66.13;;;;;;;;;;10311215;28;20086;-63
2022/12/22 19:22:26;;;;;;;88.05;56.22;;;;;;;;;;10294185;28;20814;-63
2022/12/22 19:27:27;;;;;;;77.57;50.40;;;;;;;;;;10312020;28;20067;-63
2022/12/22 19:32:27;;;;;;;93.97;52.00;;;;;;;;;;10310678;28;20448;-64
2022/12/22 19:37:25;;;;;;;72.55;42.22;;;;;;;;;;10313757;28;20053;-64
2022/12/22 19:42:24;;;;;;;83.28;49.45;;;;;;;;;;10308378;28;20379;-64
2022/12/22 19:47:25;;;;;;;97.88;54.38;;;;;;;;;;10292931;28;20536;-63
2022/12/22 19:52:23;;;;;;;83.40;51.47;;;;;;;;;;10307143;28;20068;-63
2022/12/22 19:57:22;;;;;;;89.35;55.13;;;;;;;;;;10295946;28;20517;-63
2022/12/22 20:02:26;;;;;;;82.32;51.50;;;;;;;;;;10307679;28;20079;-62
2022/12/22 20:07:25;;;;;;;93.90;56.20;;;;;;;;;;10308619;28;20061;-62
2022/12/22 20:12:26;;;;;;;104.55;68.25;;;;;;;;;;10288263;28;20521;-62
2022/12/22 20:17:25;;;;;;;126.15;77.68;;;;;;;;;;10302134;28;20059;-63
2022/12/22 20:22:24;;;;;;;139.10;80.93;;;;;;;;;;10299981;28;20051;-63
2022/12/22 20:27:24;;;;;;;129.98;78.38;;;;;;;;;;10306414;28;20075;-63
2022/12/22 20:32:22;;;;;;;114.65;74.03;;;;;;;;;;10293964;28;20077;-63
2022/12/22 20:37:28;;;;;;;87.03;57.78;;;;;;;;;;10309231;28;20517;-64
2022/12/22 20:42:26;;;;;;;84.78;51.58;;;;;;;;;;10314402;28;20072;-64
2022/12/22 20:47:24;;;;;;;78.13;48.33;;;;;;;;;;10307952;28;20073;-64
2022/12/22 20:52:22;;;;;;;77.22;45.15;;;;;;;;;;10297377;28;20513;-64
2022/12/22 20:57:23;;;;;;;109.63;59.25;;;;;;;;;;10303186;28;20469;-64
2022/12/22 21:02:22;;;;;;;131.48;71.30;;;;;;;;;;10304439;28;20071;-63
2022/12/22 21:07:20;;;;;;;103.32;60.40;;;;;;;;;;10303776;28;20053;-64
2022/12/22 21:12:18;;;;;;;142.40;83.95;;;;;;;;;;10308896;28;20510;-64
2022/12/22 21:17:19;;;;;;;126.05;77.45;;;;;;;;;;10309319;28;20087;-63
2022/12/22 21:22:17;;;;;;;143.70;88.30;;;;;;;;;;10308022;28;20072;-64
2022/12/22 21:27:18;;;;;;;158.07;91.57;;;;;;;;;;10308796;28;20064;-64
2022/12/22 21:32:18;;;;;;;114.88;73.05;;;;;;;;;;10312068;28;20098;-64
2022/12/22 21:37:17;;;;;;;124.95;76.60;;;;;;;;;;10321407;28;20075;-64
2022/12/22 21:42:16;;;;;;;147.48;89.80;;;;;;;;;;10322403;28;20465;-63
2022/12/22 21:47:16;;;;;;;164.23;98.78;;;;;;;;;;10321920;28;20063;-64
2022/12/22 21:52:15;;;;;;;147.90;95.45;;;;;;;;;;10321704;28;20053;-64
2022/12/22 21:57:15;;;;;;;151.48;93.80;;;;;;;;;;10322075;28;20083;-64
2022/12/22 22:02:15;;;;;;;108.07;66.63;;;;;;;;;;10319782;28;20052;-65
2022/12/22 22:07:13;;;;;;;140.80;84.13;;;;;;;;;;10319073;28;20570;-64
2022/12/22 22:17:29;;;;;;;127.65;80.25;;;;;;;;;;10320049;28;20064;-64
2022/12/22 22:22:27;;;;;;;124.15;72.93;;;;;;;;;;10320475;28;20048;-65
2022/12/22 22:27:27;;;;;;;104.88;65.13;;;;;;;;;;10321096;28;20068;-63
2022/12/22 22:32:25;;;;;;;109.18;62.30;;;;;;;;;;10319450;28;20075;-63
2022/12/22 22:37:23;;;;;;;101.65;59.67;;;;;;;;;;10319532;28;20076;-64
2022/12/22 22:42:22;;;;;;;106.43;63.65;;;;;;;;;;10320406;28;20498;-64
2022/12/22 22:47:21;;;;;;;109.28;63.47;;;;;;;;;;10319325;28;20052;-64
2022/12/22 22:52:19;;;;;;;103.50;61.88;;;;;;;;;;10319549;28;20143;-64
2022/12/22 22:57:18;;;;;;;105.30;59.85;;;;;;;;;;10314946;28;20077;-64
2022/12/22 23:02:16;;;;;;;92.65;56.42;;;;;;;;;;10315270;28;20520;-63
2022/12/22 23:07:16;;;;;;;96.90;56.83;;;;;;;;;;10318099;28;20076;-63
2022/12/22 23:12:14;;;;;;;121.30;76.78;;;;;;;;;;10319064;28;20075;-63
2022/12/22 23:17:12;;;;;;;98.47;58.33;;;;;;;;;;10318877;28;20079;-64
2022/12/22 23:22:11;;;;;;;150.00;85.32;;;;;;;;;;10317542;28;20074;-64
2022/12/22 23:27:10;;;;;;;135.40;82.82;;;;;;;;;;10316765;28;20080;-65
2022/12/22 23:32:09;;;;;;;129.15;78.13;;;;;;;;;;10298153;28;20048;-64
2022/12/22 23:37:07;;;;;;;139.43;83.28;;;;;;;;;;10315093;28;20084;-64
2022/12/22 23:42:17;;;;;;;95.72;55.35;;;;;;;;;;10317932;28;20075;-64
2022/12/22 23:47:15;;;;;;;163.60;80.32;;;;;;;;;;10316594;28;20075;-63
2022/12/22 23:52:13;;;;;;;88.47;52.35;;;;;;;;;;10317463;28;20442;-63
2022/12/22 23:57:11;;;;;;;60.63;38.30;;;;;;;;;;10317092;28;20083;-63
